sensor_id;sensor_type;location;lat;lon;timestamp;P1;durP1;ratioP1;P2;durP2;ratioP2
15812;SDS011;8007;51.404;6.304;2023-01-19T00:00:33;17.63;;;9.50;;
15812;SDS011;8007;51.404;6.304;2023-01-19T00:02:35;16.63;;;8.27;;
15812;SDS011;8007;51.404;6.304;2023-01-19T00:04:37;19.80;;;8.27;;
15812;SDS011;8007;51.404;6.304;2023-01-19T00:06:40;18.47;;;9.90;;
15812;SDS011;8007;51.404;6.304;2023-01-19T00:08:43;16.57;;;10.53;;
15812;SDS011;8007;51.404;6.304;2023-01-19T00:10:48;20.43;;;11.40;;
15812;SDS011;8007;51.404;6.304;2023-01-19T00:12:53;19.67;;;11.07;;
15812;SDS011;8007;51.404;6.304;2023-01-19T00:14:56;16.57;;;10.37;;
15812;SDS011;8007;51.404;6.304;2023-01-19T00:16:58;19.83;;;10.97;;
15812;SDS011;8007;51.404;6.304;2023-01-19T00:19:01;15.40;;;8.37;;
15812;SDS011;8007;51.404;6.304;2023-01-19T00:21:03;16.50;;;9.17;;
15812;SDS011;8007;51.404;6.304;2023-01-19T00:23:06;21.00;;;9.87;;
15812;SDS011;8007;51.404;6.304;2023-01-19T00:25:08;18.00;;;10.97;;
15812;SDS011;8007;51.404;6.304;2023-01-19T00:27:11;14.07;;;7.50;;
15812;SDS011;8007;51.404;6.304;2023-01-19T00:29:15;14.73;;;7.53;;
15812;SDS011;8007;51.404;6.304;2023-01-19T00:31:17;17.77;;;9.73;;
15812;SDS011;8007;51.404;6.304;2023-01-19T00:33:23;20.20;;;11.37;;
15812;SDS011;8007;51.404;6.304;2023-01-19T00:35:25;19.87;;;11.90;;
15812;SDS011;8007;51.404;6.304;2023-01-19T00:37:28;13.00;;;7.30;;
15812;SDS011;8007;51.404;6.304;2023-01-19T00:39:30;9.90;;;5.63;;
15812;SDS011;8007;51.404;6.304;2023-01-19T00:41:33;15.47;;;8.90;;
15812;SDS011;8007;51.404;6.304;2023-01-19T00:43:52;17.60;;;9.40;;
15812;SDS011;8007;51.404;6.304;2023-01-19T00:45:56;18.07;;;9.47;;
15812;SDS011;8007;51.404;6.304;2023-01-19T00:47:58;13.97;;;7.10;;
15812;SDS011;8007;51.404;6.304;2023-01-19T00:50:00;15.43;;;8.07;;
15812;SDS011;8007;51.404;6.304;2023-01-19T00:52:03;18.27;;;8.47;;
15812;SDS011;8007;51.404;6.304;2023-01-19T00:54:05;15.30;;;8.60;;
15812;SDS011;8007;51.404;6.304;2023-01-19T00:56:09;13.57;;;6.53;;
15812;SDS011;8007;51.404;6.304;2023-01-19T00:58:11;20.87;;;10.50;;
15812;SDS011;8007;51.404;6.304;2023-01-19T01:00:15;17.73;;;8.10;;
15812;SDS011;8007;51.404;6.304;2023-01-19T06:59:56;16.27;;;8.97;;
15812;SDS011;8007;51.404;6.304;2023-01-19T07:01:59;16.10;;;9.03;;
15812;SDS011;8007;51.404;6.304;2023-01-19T07:04:02;22.47;;;10.43;;
15812;SDS011;8007;51.404;6.304;2023-01-19T07:06:04;11.73;;;7.13;;
15812;SDS011;8007;51.404;6.304;2023-01-19T07:08:06;25.50;;;12.83;;
15812;SDS011;8007;51.404;6.304;2023-01-19T07:10:09;19.77;;;10.37;;
15812;SDS011;8007;51.404;6.304;2023-01-19T07:12:14;24.70;;;13.43;;
15812;SDS011;8007;51.404;6.304;2023-01-19T07:14:17;26.63;;;14.03;;
15812;SDS011;8007;51.404;6.304;2023-01-19T07:16:21;26.80;;;13.53;;
15812;SDS011;8007;51.404;6.304;2023-01-19T07:18:24;23.30;;;11.10;;
15812;SDS011;8007;51.404;6.304;2023-01-19T07:20:26;24.27;;;12.33;;
15812;SDS011;8007;51.404;6.304;2023-01-19T07:22:28;22.63;;;11.67;;
15812;SDS011;8007;51.404;6.304;2023-01-19T07:24:30;21.67;;;10.70;;
15812;SDS011;8007;51.404;6.304;2023-01-19T07:26:34;25.27;;;12.07;;
15812;SDS011;8007;51.404;6.304;2023-01-19T07:28:37;22.83;;;13.07;;
15812;SDS011;8007;51.404;6.304;2023-01-19T07:30:39;13.40;;;6.50;;
15812;SDS011;8007;51.404;6.304;2023-01-19T07:32:46;25.50;;;12.47;;
15812;SDS011;8007;51.404;6.304;2023-01-19T07:34:48;17.37;;;9.43;;
15812;SDS011;8007;51.404;6.304;2023-01-19T07:36:50;18.60;;;9.13;;
15812;SDS011;8007;51.404;6.304;2023-01-19T07:38:53;24.80;;;13.23;;
15812;SDS011;8007;51.404;6.304;2023-01-19T07:40:58;26.17;;;12.30;;
15812;SDS011;8007;51.404;6.304;2023-01-19T07:43:01;26.33;;;14.47;;
15812;SDS011;8007;51.404;6.304;2023-01-19T07:45:03;23.27;;;13.63;;
15812;SDS011;8007;51.404;6.304;2023-01-19T07:47:07;8.17;;;4.83;;
15812;SDS011;8007;51.404;6.304;2023-01-19T07:49:13;22.13;;;11.43;;
15812;SDS011;8007;51.404;6.304;2023-01-19T07:51:15;30.53;;;15.63;;
15812;SDS011;8007;51.404;6.304;2023-01-19T07:53:18;23.47;;;12.80;;
15812;SDS011;8007;51.404;6.304;2023-01-19T07:55:20;28.27;;;14.40;;
15812;SDS011;8007;51.404;6.304;2023-01-19T07:57:23;30.97;;;16.40;;
15812;SDS011;8007;51.404;6.304;2023-01-19T07:59:25;35.73;;;18.07;;
15812;SDS011;8007;51.404;6.304;2023-01-19T08:01:29;29.23;;;15.30;;
15812;SDS011;8007;51.404;6.304;2023-01-19T08:03:31;23.27;;;12.63;;
15812;SDS011;8007;51.404;6.304;2023-01-19T08:05:35;31.33;;;15.40;;
15812;SDS011;8007;51.404;6.304;2023-01-19T08:07:38;27.57;;;14.67;;
15812;SDS011;8007;51.404;6.304;2023-01-19T08:09:40;28.33;;;14.57;;
15812;SDS011;8007;51.404;6.304;2023-01-19T08:11:43;32.33;;;16.83;;
15812;SDS011;8007;51.404;6.304;2023-01-19T08:13:45;18.93;;;9.90;;
15812;SDS011;8007;51.404;6.304;2023-01-19T08:15:49;34.90;;;18.10;;
15812;SDS011;8007;51.404;6.304;2023-01-19T08:17:55;32.30;;;16.90;;
15812;SDS011;8007;51.404;6.304;2023-01-19T08:19:58;36.87;;;19.10;;
15812;SDS011;8007;51.404;6.304;2023-01-19T08:22:02;34.07;;;17.67;;
15812;SDS011;8007;51.404;6.304;2023-01-19T08:24:05;33.27;;;15.40;;
15812;SDS011;8007;51.404;6.304;2023-01-19T08:26:16;25.70;;;12.97;;
15812;SDS011;8007;51.404;6.304;2023-01-19T08:28:19;33.37;;;16.03;;
15812;SDS011;8007;51.404;6.304;2023-01-19T08:30:21;23.50;;;13.37;;
15812;SDS011;8007;51.404;6.304;2023-01-19T08:32:25;20.43;;;11.53;;
15812;SDS011;8007;51.404;6.304;2023-01-19T08:34:28;32.30;;;17.20;;
15812;SDS011;8007;51.404;6.304;2023-01-19T08:36:31;34.07;;;17.87;;
15812;SDS011;8007;51.404;6.304;2023-01-19T08:38:35;31.77;;;15.43;;
15812;SDS011;8007;51.404;6.304;2023-01-19T08:40:40;32.17;;;17.13;;
15812;SDS011;8007;51.404;6.304;2023-01-19T08:42:45;32.47;;;16.50;;
15812;SDS011;8007;51.404;6.304;2023-01-19T08:44:47;30.93;;;15.00;;
15812;SDS011;8007;51.404;6.304;2023-01-19T08:46:49;35.77;;;15.03;;
15812;SDS011;8007;51.404;6.304;2023-01-19T08:48:53;39.27;;;18.90;;
15812;SDS011;8007;51.404;6.304;2023-01-19T08:50:55;28.17;;;15.23;;
15812;SDS011;8007;51.404;6.304;2023-01-19T08:52:58;31.33;;;15.07;;
15812;SDS011;8007;51.404;6.304;2023-01-19T08:55:03;38.80;;;17.57;;
15812;SDS011;8007;51.404;6.304;2023-01-19T08:57:05;40.23;;;19.33;;
15812;SDS011;8007;51.404;6.304;2023-01-19T08:59:07;40.70;;;19.83;;
15812;SDS011;8007;51.404;6.304;2023-01-19T09:01:10;45.53;;;19.90;;
15812;SDS011;8007;51.404;6.304;2023-01-19T09:03:13;43.30;;;19.97;;
15812;SDS011;8007;51.404;6.304;2023-01-19T09:05:16;42.27;;;21.23;;
15812;SDS011;8007;51.404;6.304;2023-01-19T09:07:19;40.17;;;19.90;;
15812;SDS011;8007;51.404;6.304;2023-01-19T09:09:21;40.57;;;19.97;;
15812;SDS011;8007;51.404;6.304;2023-01-19T09:11:24;41.10;;;19.03;;
15812;SDS011;8007;51.404;6.304;2023-01-19T09:13:27;40.90;;;21.13;;
15812;SDS011;8007;51.404;6.304;2023-01-19T09:15:30;55.00;;;21.60;;
15812;SDS011;8007;51.404;6.304;2023-01-19T09:17:34;51.20;;;21.57;;
15812;SDS011;8007;51.404;6.304;2023-01-19T09:19:37;44.60;;;21.70;;
15812;SDS011;8007;51.404;6.304;2023-01-19T09:21:39;50.83;;;22.13;;
15812;SDS011;8007;51.404;6.304;2023-01-19T09:23:41;36.73;;;16.23;;
15812;SDS011;8007;51.404;6.304;2023-01-19T09:25:45;46.53;;;19.53;;
15812;SDS011;8007;51.404;6.304;2023-01-19T09:27:49;46.17;;;21.20;;
15812;SDS011;8007;51.404;6.304;2023-01-19T09:29:52;52.00;;;21.53;;
15812;SDS011;8007;51.404;6.304;2023-01-19T09:31:54;58.13;;;26.23;;
15812;SDS011;8007;51.404;6.304;2023-01-19T09:33:57;51.97;;;22.03;;
15812;SDS011;8007;51.404;6.304;2023-01-19T09:36:00;60.67;;;23.03;;
15812;SDS011;8007;51.404;6.304;2023-01-19T09:38:02;58.90;;;21.53;;
15812;SDS011;8007;51.404;6.304;2023-01-19T09:40:07;61.57;;;27.07;;
15812;SDS011;8007;51.404;6.304;2023-01-19T09:42:12;53.00;;;23.97;;
15812;SDS011;8007;51.404;6.304;2023-01-19T09:44:27;63.33;;;26.83;;
15812;SDS011;8007;51.404;6.304;2023-01-19T09:46:31;53.27;;;23.30;;
15812;SDS011;8007;51.404;6.304;2023-01-19T09:48:42;65.93;;;23.10;;
15812;SDS011;8007;51.404;6.304;2023-01-19T09:50:45;51.97;;;20.87;;
15812;SDS011;8007;51.404;6.304;2023-01-19T09:52:51;61.13;;;25.63;;
15812;SDS011;8007;51.404;6.304;2023-01-19T09:54:56;61.50;;;23.87;;
15812;SDS011;8007;51.404;6.304;2023-01-19T09:56:58;56.73;;;23.70;;
15812;SDS011;8007;51.404;6.304;2023-01-19T09:59:02;52.13;;;22.53;;
15812;SDS011;8007;51.404;6.304;2023-01-19T10:01:16;65.77;;;25.83;;
15812;SDS011;8007;51.404;6.304;2023-01-19T10:03:20;63.03;;;23.67;;
15812;SDS011;8007;51.404;6.304;2023-01-19T10:05:25;58.17;;;21.90;;
15812;SDS011;8007;51.404;6.304;2023-01-19T10:07:39;61.30;;;24.93;;
15812;SDS011;8007;51.404;6.304;2023-01-19T10:09:55;72.70;;;25.03;;
15812;SDS011;8007;51.404;6.304;2023-01-19T10:11:59;53.90;;;22.67;;
15812;SDS011;8007;51.404;6.304;2023-01-19T10:14:04;56.90;;;20.80;;
15812;SDS011;8007;51.404;6.304;2023-01-19T10:16:13;39.60;;;13.30;;
15812;SDS011;8007;51.404;6.304;2023-01-19T10:18:21;52.03;;;22.53;;
15812;SDS011;8007;51.404;6.304;2023-01-19T10:20:27;35.63;;;14.33;;
15812;SDS011;8007;51.404;6.304;2023-01-19T10:22:32;52.80;;;22.10;;
15812;SDS011;8007;51.404;6.304;2023-01-19T10:24:35;53.70;;;21.07;;
15812;SDS011;8007;51.404;6.304;2023-01-19T10:26:40;59.50;;;24.77;;
15812;SDS011;8007;51.404;6.304;2023-01-19T10:28:44;62.63;;;23.97;;
15812;SDS011;8007;51.404;6.304;2023-01-19T10:30:48;65.00;;;22.70;;
15812;SDS011;8007;51.404;6.304;2023-01-19T10:32:50;59.50;;;24.83;;
15812;SDS011;8007;51.404;6.304;2023-01-19T10:34:55;55.50;;;18.97;;
15812;SDS011;8007;51.404;6.304;2023-01-19T10:37:02;53.77;;;21.37;;
15812;SDS011;8007;51.404;6.304;2023-01-19T10:39:08;51.53;;;19.97;;
15812;SDS011;8007;51.404;6.304;2023-01-19T10:41:14;58.97;;;24.73;;
15812;SDS011;8007;51.404;6.304;2023-01-19T10:43:34;51.07;;;21.13;;
15812;SDS011;8007;51.404;6.304;2023-01-19T10:45:36;60.20;;;24.87;;
15812;SDS011;8007;51.404;6.304;2023-01-19T10:47:39;51.70;;;21.17;;
15812;SDS011;8007;51.404;6.304;2023-01-19T10:49:42;50.27;;;20.43;;
15812;SDS011;8007;51.404;6.304;2023-01-19T10:51:46;59.67;;;25.37;;
15812;SDS011;8007;51.404;6.304;2023-01-19T10:53:53;67.03;;;25.17;;
15812;SDS011;8007;51.404;6.304;2023-01-19T10:56:08;71.33;;;25.50;;
15812;SDS011;8007;51.404;6.304;2023-01-19T10:58:25;64.60;;;25.60;;
15812;SDS011;8007;51.404;6.304;2023-01-19T11:00:29;56.30;;;22.03;;
15812;SDS011;8007;51.404;6.304;2023-01-19T11:02:32;34.47;;;15.03;;
15812;SDS011;8007;51.404;6.304;2023-01-19T11:04:34;36.13;;;13.73;;
15812;SDS011;8007;51.404;6.304;2023-01-19T11:06:36;49.73;;;20.33;;
15812;SDS011;8007;51.404;6.304;2023-01-19T11:08:40;48.97;;;19.53;;
15812;SDS011;8007;51.404;6.304;2023-01-19T11:10:43;60.37;;;23.90;;
15812;SDS011;8007;51.404;6.304;2023-01-19T11:12:54;66.10;;;24.00;;
15812;SDS011;8007;51.404;6.304;2023-01-19T11:14:57;71.77;;;26.20;;
15812;SDS011;8007;51.404;6.304;2023-01-19T11:17:00;59.10;;;24.07;;
15812;SDS011;8007;51.404;6.304;2023-01-19T11:19:02;63.90;;;24.83;;
15812;SDS011;8007;51.404;6.304;2023-01-19T11:21:06;66.33;;;24.17;;
15812;SDS011;8007;51.404;6.304;2023-01-19T11:23:17;61.50;;;20.53;;
15812;SDS011;8007;51.404;6.304;2023-01-19T11:25:23;49.00;;;17.70;;
15812;SDS011;8007;51.404;6.304;2023-01-19T11:27:27;45.57;;;18.17;;
15812;SDS011;8007;51.404;6.304;2023-01-19T11:29:31;57.30;;;22.97;;
15812;SDS011;8007;51.404;6.304;2023-01-19T11:31:33;49.37;;;19.70;;
15812;SDS011;8007;51.404;6.304;2023-01-19T11:33:38;54.47;;;20.33;;
15812;SDS011;8007;51.404;6.304;2023-01-19T11:35:42;51.60;;;21.30;;
15812;SDS011;8007;51.404;6.304;2023-01-19T11:37:44;64.40;;;21.73;;
15812;SDS011;8007;51.404;6.304;2023-01-19T11:39:47;49.23;;;21.37;;
15812;SDS011;8007;51.404;6.304;2023-01-19T11:41:53;40.87;;;17.30;;
15812;SDS011;8007;51.404;6.304;2023-01-19T11:43:57;53.50;;;20.50;;
15812;SDS011;8007;51.404;6.304;2023-01-19T11:45:59;48.40;;;21.53;;
15812;SDS011;8007;51.404;6.304;2023-01-19T11:48:02;48.27;;;22.23;;
15812;SDS011;8007;51.404;6.304;2023-01-19T11:50:06;55.47;;;22.10;;
15812;SDS011;8007;51.404;6.304;2023-01-19T11:52:14;41.87;;;18.53;;
15812;SDS011;8007;51.404;6.304;2023-01-19T11:54:23;51.83;;;20.63;;
15812;SDS011;8007;51.404;6.304;2023-01-19T11:56:27;45.87;;;19.40;;
15812;SDS011;8007;51.404;6.304;2023-01-19T11:58:32;53.47;;;21.37;;
15812;SDS011;8007;51.404;6.304;2023-01-19T12:00:35;42.37;;;19.40;;
15812;SDS011;8007;51.404;6.304;2023-01-19T12:02:40;52.40;;;21.53;;
15812;SDS011;8007;51.404;6.304;2023-01-19T12:04:43;46.70;;;21.17;;
15812;SDS011;8007;51.404;6.304;2023-01-19T12:06:47;37.23;;;18.90;;
15812;SDS011;8007;51.404;6.304;2023-01-19T12:08:51;50.20;;;21.90;;
15812;SDS011;8007;51.404;6.304;2023-01-19T12:10:55;53.67;;;21.97;;
15812;SDS011;8007;51.404;6.304;2023-01-19T12:12:58;52.23;;;21.67;;
15812;SDS011;8007;51.404;6.304;2023-01-19T12:15:06;47.73;;;19.23;;
15812;SDS011;8007;51.404;6.304;2023-01-19T12:17:11;26.87;;;12.17;;
15812;SDS011;8007;51.404;6.304;2023-01-19T12:19:15;46.03;;;20.20;;
15812;SDS011;8007;51.404;6.304;2023-01-19T12:21:19;46.23;;;19.43;;
15812;SDS011;8007;51.404;6.304;2023-01-19T12:23:27;48.53;;;19.70;;
15812;SDS011;8007;51.404;6.304;2023-01-19T12:25:33;37.87;;;17.90;;
15812;SDS011;8007;51.404;6.304;2023-01-19T12:27:38;41.87;;;17.50;;
15812;SDS011;8007;51.404;6.304;2023-01-19T12:29:41;39.57;;;17.93;;
15812;SDS011;8007;51.404;6.304;2023-01-19T12:31:47;34.00;;;15.37;;
15812;SDS011;8007;51.404;6.304;2023-01-19T12:34:28;43.33;;;17.47;;
15812;SDS011;8007;51.404;6.304;2023-01-19T12:36:37;30.57;;;15.00;;
15812;SDS011;8007;51.404;6.304;2023-01-19T12:38:44;34.23;;;16.27;;
15812;SDS011;8007;51.404;6.304;2023-01-19T12:40:47;39.43;;;17.33;;
15812;SDS011;8007;51.404;6.304;2023-01-19T12:42:52;39.37;;;17.97;;
15812;SDS011;8007;51.404;6.304;2023-01-19T12:45:03;36.87;;;16.97;;
15812;SDS011;8007;51.404;6.304;2023-01-19T12:47:18;27.23;;;13.90;;
15812;SDS011;8007;51.404;6.304;2023-01-19T12:49:23;34.50;;;15.53;;
15812;SDS011;8007;51.404;6.304;2023-01-19T12:51:27;39.33;;;15.77;;
15812;SDS011;8007;51.404;6.304;2023-01-19T12:53:29;35.60;;;15.53;;
15812;SDS011;8007;51.404;6.304;2023-01-19T12:55:32;36.77;;;17.00;;
15812;SDS011;8007;51.404;6.304;2023-01-19T12:57:36;34.20;;;15.93;;
15812;SDS011;8007;51.404;6.304;2023-01-19T12:59:43;32.00;;;14.93;;
15812;SDS011;8007;51.404;6.304;2023-01-19T13:46:59;33.53;;;15.23;;
15812;SDS011;8007;51.404;6.304;2023-01-19T13:49:31;34.57;;;16.20;;
15812;SDS011;8007;51.404;6.304;2023-01-19T13:51:36;29.43;;;13.00;;
15812;SDS011;8007;51.404;6.304;2023-01-19T13:53:51;18.37;;;9.87;;
15812;SDS011;8007;51.404;6.304;2023-01-19T13:59:13;17.87;;;10.40;;
15812;SDS011;8007;51.404;6.304;2023-01-19T15:42:31;31.10;;;13.77;;
15812;SDS011;8007;51.404;6.304;2023-01-19T16:53:50;38.63;;;18.67;;
15812;SDS011;8007;51.404;6.304;2023-01-19T17:01:34;24.40;;;12.97;;
15812;SDS011;8007;51.404;6.304;2023-01-19T17:43:36;32.43;;;15.77;;
15812;SDS011;8007;51.404;6.304;2023-01-19T17:45:41;35.20;;;16.47;;
15812;SDS011;8007;51.404;6.304;2023-01-19T17:47:46;40.10;;;15.93;;
15812;SDS011;8007;51.404;6.304;2023-01-19T17:49:49;32.00;;;14.80;;
15812;SDS011;8007;51.404;6.304;2023-01-19T17:51:51;44.30;;;16.00;;
15812;SDS011;8007;51.404;6.304;2023-01-19T17:53:54;38.03;;;17.77;;
15812;SDS011;8007;51.404;6.304;2023-01-19T17:56:01;40.37;;;17.20;;
15812;SDS011;8007;51.404;6.304;2023-01-19T17:58:03;37.23;;;18.67;;
15812;SDS011;8007;51.404;6.304;2023-01-19T18:00:07;38.50;;;18.67;;
15812;SDS011;8007;51.404;6.304;2023-01-19T18:02:10;35.70;;;16.03;;
15812;SDS011;8007;51.404;6.304;2023-01-19T18:04:13;30.43;;;15.70;;
15812;SDS011;8007;51.404;6.304;2023-01-19T18:06:15;31.73;;;16.77;;
15812;SDS011;8007;51.404;6.304;2023-01-19T18:08:17;29.87;;;15.17;;
15812;SDS011;8007;51.404;6.304;2023-01-19T18:10:20;29.63;;;15.17;;
15812;SDS011;8007;51.404;6.304;2023-01-19T18:12:22;30.43;;;14.60;;
15812;SDS011;8007;51.404;6.304;2023-01-19T18:14:24;34.70;;;15.30;;
15812;SDS011;8007;51.404;6.304;2023-01-19T18:16:28;34.20;;;15.33;;
15812;SDS011;8007;51.404;6.304;2023-01-19T18:18:31;36.13;;;14.83;;
15812;SDS011;8007;51.404;6.304;2023-01-19T18:20:34;28.23;;;14.70;;
15812;SDS011;8007;51.404;6.304;2023-01-19T18:22:40;28.97;;;13.83;;
15812;SDS011;8007;51.404;6.304;2023-01-19T18:24:43;33.63;;;15.03;;
15812;SDS011;8007;51.404;6.304;2023-01-19T18:26:46;34.50;;;15.67;;
15812;SDS011;8007;51.404;6.304;2023-01-19T18:28:48;41.60;;;16.40;;
15812;SDS011;8007;51.404;6.304;2023-01-19T18:30:51;39.60;;;18.03;;
15812;SDS011;8007;51.404;6.304;2023-01-19T18:32:58;37.70;;;17.63;;
15812;SDS011;8007;51.404;6.304;2023-01-19T18:35:00;43.50;;;17.90;;
15812;SDS011;8007;51.404;6.304;2023-01-19T18:37:02;37.43;;;16.90;;
15812;SDS011;8007;51.404;6.304;2023-01-19T18:39:05;34.90;;;15.50;;
15812;SDS011;8007;51.404;6.304;2023-01-19T18:41:09;34.97;;;15.73;;
15812;SDS011;8007;51.404;6.304;2023-01-19T18:43:12;36.23;;;16.10;;
15812;SDS011;8007;51.404;6.304;2023-01-19T18:45:14;34.23;;;16.10;;
15812;SDS011;8007;51.404;6.304;2023-01-19T18:47:17;38.63;;;16.27;;
15812;SDS011;8007;51.404;6.304;2023-01-19T18:49:20;37.90;;;15.53;;
15812;SDS011;8007;51.404;6.304;2023-01-19T18:51:23;40.80;;;18.13;;
15812;SDS011;8007;51.404;6.304;2023-01-19T18:53:25;37.27;;;16.27;;
15812;SDS011;8007;51.404;6.304;2023-01-19T18:55:27;35.73;;;16.47;;
15812;SDS011;8007;51.404;6.304;2023-01-19T18:57:30;41.20;;;18.37;;
15812;SDS011;8007;51.404;6.304;2023-01-19T18:59:32;34.33;;;18.03;;
15812;SDS011;8007;51.404;6.304;2023-01-19T19:01:34;37.33;;;16.43;;
15812;SDS011;8007;51.404;6.304;2023-01-19T19:03:42;38.40;;;17.63;;
15812;SDS011;8007;51.404;6.304;2023-01-19T19:05:46;36.40;;;17.00;;
15812;SDS011;8007;51.404;6.304;2023-01-19T19:07:50;34.77;;;16.23;;
15812;SDS011;8007;51.404;6.304;2023-01-19T19:09:55;32.53;;;15.27;;
15812;SDS011;8007;51.404;6.304;2023-01-19T19:11:58;31.60;;;15.57;;
15812;SDS011;8007;51.404;6.304;2023-01-19T19:14:01;33.93;;;14.43;;
15812;SDS011;8007;51.404;6.304;2023-01-19T19:16:04;32.03;;;14.53;;
15812;SDS011;8007;51.404;6.304;2023-01-19T19:18:06;38.27;;;17.83;;
15812;SDS011;8007;51.404;6.304;2023-01-19T19:20:10;38.30;;;17.77;;
15812;SDS011;8007;51.404;6.304;2023-01-19T19:22:14;34.03;;;16.03;;
15812;SDS011;8007;51.404;6.304;2023-01-19T19:24:16;34.90;;;17.20;;
15812;SDS011;8007;51.404;6.304;2023-01-19T19:26:18;37.33;;;16.53;;
15812;SDS011;8007;51.404;6.304;2023-01-19T19:28:20;36.67;;;17.63;;
15812;SDS011;8007;51.404;6.304;2023-01-19T19:30:23;32.67;;;16.80;;
15812;SDS011;8007;51.404;6.304;2023-01-19T19:32:25;35.20;;;16.90;;
15812;SDS011;8007;51.404;6.304;2023-01-19T19:34:27;40.13;;;18.80;;
15812;SDS011;8007;51.404;6.304;2023-01-19T19:36:29;42.23;;;17.17;;
15812;SDS011;8007;51.404;6.304;2023-01-19T19:38:33;35.90;;;18.07;;
15812;SDS011;8007;51.404;6.304;2023-01-19T19:40:36;34.10;;;16.17;;
15812;SDS011;8007;51.404;6.304;2023-01-19T19:42:38;40.40;;;18.50;;
15812;SDS011;8007;51.404;6.304;2023-01-19T19:44:40;38.83;;;19.30;;
15812;SDS011;8007;51.404;6.304;2023-01-19T19:46:43;38.73;;;19.27;;
15812;SDS011;8007;51.404;6.304;2023-01-19T19:48:45;44.40;;;19.43;;
15812;SDS011;8007;51.404;6.304;2023-01-19T19:50:48;40.83;;;18.53;;
15812;SDS011;8007;51.404;6.304;2023-01-19T19:52:50;42.77;;;19.50;;
15812;SDS011;8007;51.404;6.304;2023-01-19T19:54:54;41.63;;;21.93;;
15812;SDS011;8007;51.404;6.304;2023-01-19T19:56:56;51.93;;;26.20;;
15812;SDS011;8007;51.404;6.304;2023-01-19T19:58:59;46.47;;;22.60;;
15812;SDS011;8007;51.404;6.304;2023-01-19T20:01:06;48.93;;;23.27;;
15812;SDS011;8007;51.404;6.304;2023-01-19T20:03:09;56.77;;;26.57;;
15812;SDS011;8007;51.404;6.304;2023-01-19T20:05:12;50.13;;;25.43;;
15812;SDS011;8007;51.404;6.304;2023-01-19T20:07:14;53.60;;;28.57;;
15812;SDS011;8007;51.404;6.304;2023-01-19T20:09:17;51.73;;;28.70;;
15812;SDS011;8007;51.404;6.304;2023-01-19T20:11:24;46.37;;;23.67;;
15812;SDS011;8007;51.404;6.304;2023-01-19T20:13:26;53.07;;;25.80;;
15812;SDS011;8007;51.404;6.304;2023-01-19T20:15:28;51.63;;;25.07;;
15812;SDS011;8007;51.404;6.304;2023-01-19T20:17:31;52.90;;;24.47;;
15812;SDS011;8007;51.404;6.304;2023-01-19T20:19:33;46.17;;;20.00;;
15812;SDS011;8007;51.404;6.304;2023-01-19T20:21:36;44.60;;;20.47;;
15812;SDS011;8007;51.404;6.304;2023-01-19T20:23:38;43.97;;;19.80;;
15812;SDS011;8007;51.404;6.304;2023-01-19T20:25:40;41.83;;;18.20;;
15812;SDS011;8007;51.404;6.304;2023-01-19T20:27:44;43.77;;;21.30;;
15812;SDS011;8007;51.404;6.304;2023-01-19T20:29:48;47.63;;;21.20;;
15812;SDS011;8007;51.404;6.304;2023-01-19T20:31:51;49.33;;;21.20;;
15812;SDS011;8007;51.404;6.304;2023-01-19T20:33:54;45.53;;;20.00;;
15812;SDS011;8007;51.404;6.304;2023-01-19T20:35:57;50.63;;;21.40;;
15812;SDS011;8007;51.404;6.304;2023-01-19T20:37:59;47.53;;;19.40;;
15812;SDS011;8007;51.404;6.304;2023-01-19T20:40:01;61.73;;;27.47;;
15812;SDS011;8007;51.404;6.304;2023-01-19T20:42:04;62.73;;;29.53;;
15812;SDS011;8007;51.404;6.304;2023-01-19T20:44:12;61.27;;;30.80;;
15812;SDS011;8007;51.404;6.304;2023-01-19T20:46:14;66.43;;;30.50;;
15812;SDS011;8007;51.404;6.304;2023-01-19T20:48:16;52.07;;;25.73;;
15812;SDS011;8007;51.404;6.304;2023-01-19T20:50:18;50.20;;;23.87;;
15812;SDS011;8007;51.404;6.304;2023-01-19T20:52:20;53.10;;;24.37;;
15812;SDS011;8007;51.404;6.304;2023-01-19T20:54:24;49.43;;;22.93;;
15812;SDS011;8007;51.404;6.304;2023-01-19T20:56:28;51.77;;;21.60;;
15812;SDS011;8007;51.404;6.304;2023-01-19T20:58:31;45.00;;;21.13;;
15812;SDS011;8007;51.404;6.304;2023-01-19T21:00:34;48.73;;;21.90;;
15812;SDS011;8007;51.404;6.304;2023-01-19T21:02:37;49.27;;;21.13;;
15812;SDS011;8007;51.404;6.304;2023-01-19T21:04:39;52.27;;;20.90;;
15812;SDS011;8007;51.404;6.304;2023-01-19T21:06:41;49.20;;;21.60;;
15812;SDS011;8007;51.404;6.304;2023-01-19T21:08:44;44.00;;;19.47;;
15812;SDS011;8007;51.404;6.304;2023-01-19T21:10:48;39.63;;;16.13;;
15812;SDS011;8007;51.404;6.304;2023-01-19T21:12:50;47.90;;;21.40;;
15812;SDS011;8007;51.404;6.304;2023-01-19T21:14:53;44.13;;;19.53;;
15812;SDS011;8007;51.404;6.304;2023-01-19T21:16:56;45.53;;;20.87;;
15812;SDS011;8007;51.404;6.304;2023-01-19T21:18:58;52.13;;;21.97;;
15812;SDS011;8007;51.404;6.304;2023-01-19T21:21:01;49.97;;;22.53;;
15812;SDS011;8007;51.404;6.304;2023-01-19T21:23:03;46.83;;;22.87;;
15812;SDS011;8007;51.404;6.304;2023-01-19T21:25:05;45.87;;;22.07;;
15812;SDS011;8007;51.404;6.304;2023-01-19T21:27:08;56.53;;;27.00;;
15812;SDS011;8007;51.404;6.304;2023-01-19T21:29:10;50.70;;;20.03;;
15812;SDS011;8007;51.404;6.304;2023-01-19T21:31:13;51.43;;;23.43;;
15812;SDS011;8007;51.404;6.304;2023-01-19T21:33:16;52.30;;;23.43;;
15812;SDS011;8007;51.404;6.304;2023-01-19T21:35:19;47.87;;;19.43;;
15812;SDS011;8007;51.404;6.304;2023-01-19T21:37:21;55.90;;;22.23;;
15812;SDS011;8007;51.404;6.304;2023-01-19T21:39:23;47.10;;;20.70;;
15812;SDS011;8007;51.404;6.304;2023-01-19T21:41:26;61.80;;;28.33;;
15812;SDS011;8007;51.404;6.304;2023-01-19T21:43:28;49.33;;;21.27;;
15812;SDS011;8007;51.404;6.304;2023-01-19T21:45:45;55.67;;;24.57;;
15812;SDS011;8007;51.404;6.304;2023-01-19T21:47:48;53.70;;;22.97;;
15812;SDS011;8007;51.404;6.304;2023-01-19T21:49:51;55.10;;;23.43;;
15812;SDS011;8007;51.404;6.304;2023-01-19T21:51:54;56.70;;;24.67;;
15812;SDS011;8007;51.404;6.304;2023-01-19T21:53:56;53.73;;;24.10;;
15812;SDS011;8007;51.404;6.304;2023-01-19T21:56:04;51.30;;;21.50;;
15812;SDS011;8007;51.404;6.304;2023-01-19T21:58:07;50.50;;;23.17;;
15812;SDS011;8007;51.404;6.304;2023-01-19T22:00:10;51.13;;;21.97;;
15812;SDS011;8007;51.404;6.304;2023-01-19T22:02:12;54.30;;;21.80;;
15812;SDS011;8007;51.404;6.304;2023-01-19T22:04:15;53.27;;;23.20;;
15812;SDS011;8007;51.404;6.304;2023-01-19T22:06:19;50.47;;;23.77;;
15812;SDS011;8007;51.404;6.304;2023-01-19T22:08:23;47.80;;;21.43;;
15812;SDS011;8007;51.404;6.304;2023-01-19T22:10:28;63.17;;;23.80;;
15812;SDS011;8007;51.404;6.304;2023-01-19T22:12:30;54.63;;;24.13;;
15812;SDS011;8007;51.404;6.304;2023-01-19T22:14:35;54.03;;;22.20;;
15812;SDS011;8007;51.404;6.304;2023-01-19T22:16:38;55.50;;;21.97;;
15812;SDS011;8007;51.404;6.304;2023-01-19T22:18:41;54.73;;;24.43;;
15812;SDS011;8007;51.404;6.304;2023-01-19T22:21:06;54.77;;;22.37;;
15812;SDS011;8007;51.404;6.304;2023-01-19T22:23:12;56.13;;;21.73;;
15812;SDS011;8007;51.404;6.304;2023-01-19T22:25:14;52.37;;;20.97;;
15812;SDS011;8007;51.404;6.304;2023-01-19T22:27:16;50.00;;;20.83;;
15812;SDS011;8007;51.404;6.304;2023-01-19T22:29:19;49.63;;;20.63;;
15812;SDS011;8007;51.404;6.304;2023-01-19T22:31:22;48.53;;;21.67;;
15812;SDS011;8007;51.404;6.304;2023-01-19T22:33:39;49.40;;;21.13;;
15812;SDS011;8007;51.404;6.304;2023-01-19T22:35:41;44.53;;;20.77;;
15812;SDS011;8007;51.404;6.304;2023-01-19T22:37:43;50.33;;;21.87;;
15812;SDS011;8007;51.404;6.304;2023-01-19T22:39:47;57.27;;;22.20;;